sensor_id;sensor_type;location;lat;lon;timestamp;pressure;altitude;pressure_sealevel;temperature;humidity
59825;BME280;45703;50.898;6.054;2022-08-21T00:00:38;100340.66;;;16.41;73.81
59825;BME280;45703;50.898;6.054;2022-08-21T00:03:07;100339.84;;;16.40;73.85
59825;BME280;45703;50.898;6.054;2022-08-21T00:05:37;100343.06;;;16.37;73.79
59825;BME280;45703;50.898;6.054;2022-08-21T00:08:03;100334.41;;;16.35;73.88
59825;BME280;45703;50.898;6.054;2022-08-21T00:10:29;100338.97;;;16.35;73.79
59825;BME280;45703;50.898;6.054;2022-08-21T00:12:54;100334.66;;;16.34;74.31
59825;BME280;45703;50.898;6.054;2022-08-21T00:15:24;100333.00;;;16.33;74.03
59825;BME280;45703;50.898;6.054;2022-08-21T00:17:52;100321.34;;;16.27;74.22
59825;BME280;45703;50.898;6.054;2022-08-21T00:20:17;100321.91;;;16.29;74.17
59825;BME280;45703;50.898;6.054;2022-08-21T00:22:43;100314.09;;;16.28;74.46
59825;BME280;45703;50.898;6.054;2022-08-21T00:25:09;100324.31;;;16.26;74.38
59825;BME280;45703;50.898;6.054;2022-08-21T00:27:35;100320.00;;;16.25;74.56
59825;BME280;45703;50.898;6.054;2022-08-21T00:30:03;100320.25;;;16.23;74.52
59825;BME280;45703;50.898;6.054;2022-08-21T00:32:30;100313.50;;;16.21;74.38
59825;BME280;45703;50.898;6.054;2022-08-21T00:34:55;100320.75;;;16.20;74.45
59825;BME280;45703;50.898;6.054;2022-08-21T00:37:21;100313.50;;;16.21;74.75
59825;BME280;45703;50.898;6.054;2022-08-21T00:39:46;100311.06;;;16.19;74.39
59825;BME280;45703;50.898;6.054;2022-08-21T00:42:13;100316.19;;;16.21;74.44
59825;BME280;45703;50.898;6.054;2022-08-21T00:44:43;100309.69;;;16.17;74.61
59825;BME280;45703;50.898;6.054;2022-08-21T00:47:09;100320.72;;;16.15;74.49
59825;BME280;45703;50.898;6.054;2022-08-21T00:49:35;100308.31;;;16.14;74.67
59825;BME280;45703;50.898;6.054;2022-08-21T00:52:01;100306.41;;;16.10;74.74
59825;BME280;45703;50.898;6.054;2022-08-21T00:54:28;100310.66;;;16.06;74.76
59825;BME280;45703;50.898;6.054;2022-08-21T00:56:57;100314.41;;;16.05;74.79
59825;BME280;45703;50.898;6.054;2022-08-21T00:59:25;100314.41;;;16.05;74.89
59825;BME280;45703;50.898;6.054;2022-08-21T01:01:52;100317.59;;;16.02;74.80
59825;BME280;45703;50.898;6.054;2022-08-21T01:04:18;100321.38;;;16.01;75.00
59825;BME280;45703;50.898;6.054;2022-08-21T01:06:44;100307.63;;;15.97;75.20
59825;BME280;45703;50.898;6.054;2022-08-21T01:09:12;100308.38;;;15.93;75.05
59825;BME280;45703;50.898;6.054;2022-08-21T01:11:39;100318.34;;;15.93;75.13
59825;BME280;45703;50.898;6.054;2022-08-21T01:14:04;100323.16;;;15.91;75.51
59825;BME280;45703;50.898;6.054;2022-08-21T01:16:30;100308.31;;;15.88;75.34
59825;BME280;45703;50.898;6.054;2022-08-21T01:18:56;100319.59;;;15.85;75.61
59825;BME280;45703;50.898;6.054;2022-08-21T01:21:24;100311.47;;;15.80;75.47
59825;BME280;45703;50.898;6.054;2022-08-21T01:23:52;100314.97;;;15.81;75.64
59825;BME280;45703;50.898;6.054;2022-08-21T01:26:23;100306.88;;;15.81;75.58
59825;BME280;45703;50.898;6.054;2022-08-21T01:29:02;100312.78;;;15.78;75.96
59825;BME280;45703;50.898;6.054;2022-08-21T01:31:28;100302.22;;;15.71;75.72
59825;BME280;45703;50.898;6.054;2022-08-21T01:33:55;100316.25;;;15.73;75.83
59825;BME280;45703;50.898;6.054;2022-08-21T01:36:22;100316.97;;;15.69;75.78
59825;BME280;45703;50.898;6.054;2022-08-21T01:38:47;100317.81;;;15.69;75.81
59825;BME280;45703;50.898;6.054;2022-08-21T01:41:14;100317.25;;;15.67;76.01
59825;BME280;45703;50.898;6.054;2022-08-21T01:43:40;100322.88;;;15.66;76.03
59825;BME280;45703;50.898;6.054;2022-08-21T01:46:06;100326.06;;;15.63;76.07
59825;BME280;45703;50.898;6.054;2022-08-21T01:48:32;100320.69;;;15.63;76.14
59825;BME280;45703;50.898;6.054;2022-08-21T01:50:57;100324.44;;;15.62;76.08
59825;BME280;45703;50.898;6.054;2022-08-21T01:53:23;100320.97;;;15.61;76.26
59825;BME280;45703;50.898;6.054;2022-08-21T01:55:48;100322.03;;;15.60;75.92
59825;BME280;45703;50.898;6.054;2022-08-21T01:58:14;100320.41;;;15.59;75.66
59825;BME280;45703;50.898;6.054;2022-08-21T02:00:39;100317.94;;;15.58;75.99
59825;BME280;45703;50.898;6.054;2022-08-21T02:03:05;100307.34;;;15.51;75.75
59825;BME280;45703;50.898;6.054;2022-08-21T02:05:30;100314.38;;;15.52;75.95
59825;BME280;45703;50.898;6.054;2022-08-21T02:07:56;100316.25;;;15.52;75.83
59825;BME280;45703;50.898;6.054;2022-08-21T02:10:25;100314.88;;;15.49;76.09
59825;BME280;45703;50.898;6.054;2022-08-21T02:12:52;100318.06;;;15.46;76.03
59825;BME280;45703;50.898;6.054;2022-08-21T02:15:17;100305.38;;;15.42;76.11
59825;BME280;45703;50.898;6.054;2022-08-21T02:17:49;100308.88;;;15.42;76.22
59825;BME280;45703;50.898;6.054;2022-08-21T02:20:21;100305.63;;;15.40;76.33
59825;BME280;45703;50.898;6.054;2022-08-21T02:22:47;100310.44;;;15.38;75.82
59825;BME280;45703;50.898;6.054;2022-08-21T02:25:13;100303.69;;;15.36;76.22
59825;BME280;45703;50.898;6.054;2022-08-21T02:27:41;100305.81;;;15.34;76.42
59825;BME280;45703;50.898;6.054;2022-08-21T02:30:12;100313.31;;;15.32;76.47
59825;BME280;45703;50.898;6.054;2022-08-21T02:32:37;100312.16;;;15.28;76.76
59825;BME280;45703;50.898;6.054;2022-08-21T02:35:03;100314.03;;;15.27;76.42
59825;BME280;45703;50.898;6.054;2022-08-21T02:37:29;100304.00;;;15.23;76.45
59825;BME280;45703;50.898;6.054;2022-08-21T02:39:54;100309.16;;;15.24;76.45
59825;BME280;45703;50.898;6.054;2022-08-21T02:42:19;100306.47;;;15.24;76.38
59825;BME280;45703;50.898;6.054;2022-08-21T02:44:45;100313.69;;;15.24;76.34
59825;BME280;45703;50.898;6.054;2022-08-21T02:47:10;100307.53;;;15.23;76.25
59825;BME280;45703;50.898;6.054;2022-08-21T02:49:35;100314.28;;;15.26;76.12
59825;BME280;45703;50.898;6.054;2022-08-21T02:52:01;100308.09;;;15.25;76.35
59825;BME280;45703;50.898;6.054;2022-08-21T02:54:26;100303.22;;;15.22;76.38
59825;BME280;45703;50.898;6.054;2022-08-21T02:56:52;100311.56;;;15.26;76.51
59825;BME280;45703;50.898;6.054;2022-08-21T02:59:17;100302.94;;;15.24;76.25
59825;BME280;45703;50.898;6.054;2022-08-21T03:01:43;100303.22;;;15.22;76.36
59825;BME280;45703;50.898;6.054;2022-08-21T03:04:09;100302.66;;;15.20;76.14
59825;BME280;45703;50.898;6.054;2022-08-21T03:06:34;100296.38;;;15.15;76.39
59825;BME280;45703;50.898;6.054;2022-08-21T03:08:59;100294.53;;;15.15;76.34
59825;BME280;45703;50.898;6.054;2022-08-21T03:11:25;100297.44;;;15.14;76.28
59825;BME280;45703;50.898;6.054;2022-08-21T03:13:51;100291.50;;;15.12;76.50
59825;BME280;45703;50.898;6.054;2022-08-21T03:16:17;100287.44;;;15.09;76.55
59825;BME280;45703;50.898;6.054;2022-08-21T03:18:44;100293.63;;;15.10;76.40
59825;BME280;45703;50.898;6.054;2022-08-21T03:21:10;100289.00;;;15.05;76.37
59825;BME280;45703;50.898;6.054;2022-08-21T03:23:35;100300.34;;;15.07;76.40
59825;BME280;45703;50.898;6.054;2022-08-21T03:26:01;100297.06;;;15.05;76.26
59825;BME280;45703;50.898;6.054;2022-08-21T03:28:27;100293.78;;;15.03;76.24
59825;BME280;45703;50.898;6.054;2022-08-21T03:30:52;100295.41;;;15.04;76.33
59825;BME280;45703;50.898;6.054;2022-08-21T03:33:18;100298.38;;;15.03;76.50
59825;BME280;45703;50.898;6.054;2022-08-21T03:35:46;100304.56;;;15.03;76.70
59825;BME280;45703;50.898;6.054;2022-08-21T03:38:14;100296.41;;;14.98;76.63
59825;BME280;45703;50.898;6.054;2022-08-21T03:40:41;100308.00;;;14.99;76.51
59825;BME280;45703;50.898;6.054;2022-08-21T03:43:07;100303.91;;;14.96;76.22
59825;BME280;45703;50.898;6.054;2022-08-21T03:45:34;100304.41;;;14.93;76.39
59825;BME280;45703;50.898;6.054;2022-08-21T03:48:02;100307.38;;;14.92;76.60
59825;BME280;45703;50.898;6.054;2022-08-21T03:50:31;100311.34;;;14.89;76.51
59825;BME280;45703;50.898;6.054;2022-08-21T03:52:57;100302.72;;;14.87;76.55
59825;BME280;45703;50.898;6.054;2022-08-21T03:55:24;100303.78;;;14.86;76.62
59825;BME280;45703;50.898;6.054;2022-08-21T03:57:50;100311.84;;;14.86;76.80
59825;BME280;45703;50.898;6.054;2022-08-21T04:00:16;100301.03;;;14.81;76.71
59825;BME280;45703;50.898;6.054;2022-08-21T04:02:42;100309.91;;;14.82;76.63
59825;BME280;45703;50.898;6.054;2022-08-21T04:05:09;100306.31;;;14.76;76.83
59825;BME280;45703;50.898;6.054;2022-08-21T04:07:35;100319.28;;;14.79;76.95
59825;BME280;45703;50.898;6.054;2022-08-21T04:10:01;100325.13;;;14.76;76.78
59825;BME280;45703;50.898;6.054;2022-08-21T04:12:27;100316.75;;;14.73;77.04
59825;BME280;45703;50.898;6.054;2022-08-21T04:14:52;100321.56;;;14.71;76.88
59825;BME280;45703;50.898;6.054;2022-08-21T04:17:18;100317.50;;;14.68;77.04
59825;BME280;45703;50.898;6.054;2022-08-21T04:19:44;100325.28;;;14.70;76.98
59825;BME280;45703;50.898;6.054;2022-08-21T04:22:10;100327.19;;;14.69;76.93
59825;BME280;45703;50.898;6.054;2022-08-21T04:24:35;100327.41;;;14.68;77.08
59825;BME280;45703;50.898;6.054;2022-08-21T04:27:01;100323.38;;;14.65;77.29
59825;BME280;45703;50.898;6.054;2022-08-21T04:29:26;100326.06;;;14.65;77.36
59825;BME280;45703;50.898;6.054;2022-08-21T04:31:51;100334.91;;;14.66;77.07
59825;BME280;45703;50.898;6.054;2022-08-21T04:34:18;100333.78;;;14.62;77.10
59825;BME280;45703;50.898;6.054;2022-08-21T04:36:43;100321.16;;;14.62;77.27
59825;BME280;45703;50.898;6.054;2022-08-21T04:39:08;100314.16;;;14.61;77.44
59825;BME280;45703;50.898;6.054;2022-08-21T04:41:34;100321.72;;;14.64;77.30
59825;BME280;45703;50.898;6.054;2022-08-21T04:44:01;100324.16;;;14.66;77.43
59825;BME280;45703;50.898;6.054;2022-08-21T04:46:26;100321.72;;;14.64;77.25
59825;BME280;45703;50.898;6.054;2022-08-21T04:48:51;100323.09;;;14.67;77.05
59825;BME280;45703;50.898;6.054;2022-08-21T04:51:43;100319.63;;;14.66;77.16
59825;BME280;45703;50.898;6.054;2022-08-21T04:54:12;100320.69;;;14.65;77.20
59825;BME280;45703;50.898;6.054;2022-08-21T04:56:44;100307.72;;;14.62;77.30
59825;BME280;45703;50.898;6.054;2022-08-21T04:59:15;100311.56;;;14.66;77.54
59825;BME280;45703;50.898;6.054;2022-08-21T05:01:41;100323.38;;;14.65;77.22
59825;BME280;45703;50.898;6.054;2022-08-21T05:04:11;100320.69;;;14.65;77.30
59825;BME280;45703;50.898;6.054;2022-08-21T05:06:38;100332.47;;;14.64;77.33
59825;BME280;45703;50.898;6.054;2022-08-21T05:09:07;100335.16;;;14.64;77.68
59825;BME280;45703;50.898;6.054;2022-08-21T05:11:35;100318.97;;;14.59;77.38
59825;BME280;45703;50.898;6.054;2022-08-21T05:14:00;100334.13;;;14.65;77.54
59825;BME280;45703;50.898;6.054;2022-08-21T05:16:26;100330.38;;;14.66;77.62
59825;BME280;45703;50.898;6.054;2022-08-21T05:18:52;100325.00;;;14.66;77.44
59825;BME280;45703;50.898;6.054;2022-08-21T05:21:17;100333.63;;;14.68;77.63
59825;BME280;45703;50.898;6.054;2022-08-21T05:23:42;100340.34;;;14.71;77.57
59825;BME280;45703;50.898;6.054;2022-08-21T05:26:08;100339.31;;;14.72;77.39
59825;BME280;45703;50.898;6.054;2022-08-21T05:28:33;100343.38;;;14.74;77.48
59825;BME280;45703;50.898;6.054;2022-08-21T05:30:59;100342.31;;;14.75;77.47
59825;BME280;45703;50.898;6.054;2022-08-21T05:33:24;100339.63;;;14.75;77.54
59825;BME280;45703;50.898;6.054;2022-08-21T05:35:52;100331.56;;;14.75;77.49
59825;BME280;45703;50.898;6.054;2022-08-21T05:38:18;100333.19;;;14.76;77.79
59825;BME280;45703;50.898;6.054;2022-08-21T05:40:45;100338.56;;;14.76;77.48
59825;BME280;45703;50.898;6.054;2022-08-21T05:43:10;100340.53;;;14.81;77.89
59825;BME280;45703;50.898;6.054;2022-08-21T05:45:36;100331.88;;;14.79;77.97
59825;BME280;45703;50.898;6.054;2022-08-21T05:48:09;100340.63;;;14.86;78.15
59825;BME280;45703;50.898;6.054;2022-08-21T05:50:35;100341.41;;;14.86;77.86
59825;BME280;45703;50.898;6.054;2022-08-21T05:53:02;100330.66;;;14.86;77.94
59825;BME280;45703;50.898;6.054;2022-08-21T05:55:28;100334.56;;;14.95;77.91
59825;BME280;45703;50.898;6.054;2022-08-21T05:57:53;100336.50;;;15.00;77.99
59825;BME280;45703;50.898;6.054;2022-08-21T06:00:19;100329.81;;;15.02;77.71
59825;BME280;45703;50.898;6.054;2022-08-21T06:02:45;100336.09;;;15.08;77.82
59825;BME280;45703;50.898;6.054;2022-08-21T06:05:10;100331.59;;;15.13;77.58
59825;BME280;45703;50.898;6.054;2022-08-21T06:07:35;100327.16;;;15.24;77.13
59825;BME280;45703;50.898;6.054;2022-08-21T06:10:01;100328.06;;;15.29;77.24
59825;BME280;45703;50.898;6.054;2022-08-21T06:12:26;100326.56;;;15.38;77.51
59825;BME280;45703;50.898;6.054;2022-08-21T06:14:52;100335.81;;;15.47;77.08
59825;BME280;45703;50.898;6.054;2022-08-21T06:17:18;100331.63;;;15.56;77.35
59825;BME280;45703;50.898;6.054;2022-08-21T06:19:44;100338.78;;;15.67;77.10
59825;BME280;45703;50.898;6.054;2022-08-21T06:22:09;100336.94;;;15.73;76.69
59825;BME280;45703;50.898;6.054;2022-08-21T06:24:35;100341.19;;;15.90;76.50
59825;BME280;45703;50.898;6.054;2022-08-21T06:27:07;100344.53;;;16.02;76.10
59825;BME280;45703;50.898;6.054;2022-08-21T06:29:34;100340.34;;;16.11;75.58
59825;BME280;45703;50.898;6.054;2022-08-21T06:31:59;100343.19;;;16.26;75.54
59825;BME280;45703;50.898;6.054;2022-08-21T06:34:25;100346.03;;;16.41;75.15
59825;BME280;45703;50.898;6.054;2022-08-21T06:36:50;100348.06;;;16.55;74.53
59825;BME280;45703;50.898;6.054;2022-08-21T06:39:15;100345.19;;;16.67;74.10
59825;BME280;45703;50.898;6.054;2022-08-21T06:41:41;100352.88;;;16.85;73.61
59825;BME280;45703;50.898;6.054;2022-08-21T06:44:07;100343.50;;;16.92;73.52
59825;BME280;45703;50.898;6.054;2022-08-21T06:46:32;100338.44;;;17.06;73.45
59825;BME280;45703;50.898;6.054;2022-08-21T06:48:58;100353.63;;;17.17;73.05
59825;BME280;45703;50.898;6.054;2022-08-21T06:51:24;100352.84;;;17.21;72.83
59825;BME280;45703;50.898;6.054;2022-08-21T06:53:52;100353.75;;;17.37;72.14
59825;BME280;45703;50.898;6.054;2022-08-21T06:56:18;100353.25;;;17.44;72.06
59825;BME280;45703;50.898;6.054;2022-08-21T06:58:44;100355.19;;;17.54;71.75
59825;BME280;45703;50.898;6.054;2022-08-21T07:01:10;100346.56;;;17.57;71.53
59825;BME280;45703;50.898;6.054;2022-08-21T07:03:37;100354.47;;;17.73;71.18
59825;BME280;45703;50.898;6.054;2022-08-21T07:06:04;100351.25;;;17.81;70.82
59825;BME280;45703;50.898;6.054;2022-08-21T07:08:31;100352.34;;;17.85;70.89
59825;BME280;45703;50.898;6.054;2022-08-21T07:10:58;100351.28;;;17.96;70.23
59825;BME280;45703;50.898;6.054;2022-08-21T07:13:24;100347.28;;;18.04;69.95
59825;BME280;45703;50.898;6.054;2022-08-21T07:15:50;100347.00;;;18.05;69.96
59825;BME280;45703;50.898;6.054;2022-08-21T07:18:15;100352.69;;;18.14;69.67
59825;BME280;45703;50.898;6.054;2022-08-21T07:20:41;100346.50;;;18.18;69.19
59825;BME280;45703;50.898;6.054;2022-08-21T07:23:30;100354.66;;;18.28;67.82
59825;BME280;45703;50.898;6.054;2022-08-21T07:25:57;100360.59;;;18.35;68.74
59825;BME280;45703;50.898;6.054;2022-08-21T07:28:24;100346.00;;;18.36;68.92
59825;BME280;45703;50.898;6.054;2022-08-21T07:30:52;100344.38;;;18.45;68.76
59825;BME280;45703;50.898;6.054;2022-08-21T07:33:18;100347.63;;;18.57;68.63
59825;BME280;45703;50.898;6.054;2022-08-21T07:35:43;100353.06;;;18.67;67.38
59825;BME280;45703;50.898;6.054;2022-08-21T07:38:09;100340.06;;;18.69;67.33
59825;BME280;45703;50.898;6.054;2022-08-21T07:40:34;100351.69;;;18.75;67.00
59825;BME280;45703;50.898;6.054;2022-08-21T07:43:00;100344.66;;;18.79;67.50
59825;BME280;45703;50.898;6.054;2022-08-21T07:45:26;100355.50;;;18.89;67.30
59825;BME280;45703;50.898;6.054;2022-08-21T07:47:51;100355.19;;;18.95;66.38
59825;BME280;45703;50.898;6.054;2022-08-21T07:50:18;100339.50;;;18.97;66.02
59825;BME280;45703;50.898;6.054;2022-08-21T07:52:43;100346.50;;;19.03;66.56
59825;BME280;45703;50.898;6.054;2022-08-21T07:55:12;100338.38;;;19.08;66.37
59825;BME280;45703;50.898;6.054;2022-08-21T07:57:38;100337.31;;;19.14;65.85
59825;BME280;45703;50.898;6.054;2022-08-21T08:00:06;100335.19;;;19.16;65.93
59825;BME280;45703;50.898;6.054;2022-08-21T08:02:32;100334.63;;;19.19;65.65
59825;BME280;45703;50.898;6.054;2022-08-21T08:04:59;100327.03;;;19.21;65.95
59825;BME280;45703;50.898;6.054;2022-08-21T08:07:26;100326.47;;;19.24;65.45
59825;BME280;45703;50.898;6.054;2022-08-21T08:09:51;100318.06;;;19.25;65.78
59825;BME280;45703;50.898;6.054;2022-08-21T08:12:16;100328.88;;;19.35;65.22
59825;BME280;45703;50.898;6.054;2022-08-21T08:14:42;100318.31;;;19.39;65.80
59825;BME280;45703;50.898;6.054;2022-08-21T08:17:08;100324.22;;;19.46;65.80
59825;BME280;45703;50.898;6.054;2022-08-21T08:19:33;100320.94;;;19.54;65.72
59825;BME280;45703;50.898;6.054;2022-08-21T08:21:58;100330.09;;;19.63;65.23
59825;BME280;45703;50.898;6.054;2022-08-21T08:24:24;100330.09;;;19.73;64.18
59825;BME280;45703;50.898;6.054;2022-08-21T08:26:49;100312.72;;;19.79;64.04
59825;BME280;45703;50.898;6.054;2022-08-21T08:29:14;100327.03;;;19.84;63.67
59825;BME280;45703;50.898;6.054;2022-08-21T08:31:40;100328.91;;;19.89;63.73
59825;BME280;45703;50.898;6.054;2022-08-21T08:34:06;100326.72;;;19.91;62.24
59825;BME280;45703;50.898;6.054;2022-08-21T08:36:34;100318.59;;;19.91;62.48
59825;BME280;45703;50.898;6.054;2022-08-21T08:39:01;100316.44;;;19.88;61.96
59825;BME280;45703;50.898;6.054;2022-08-21T08:41:26;100308.03;;;19.89;62.09
59825;BME280;45703;50.898;6.054;2022-08-21T08:43:54;100301.78;;;19.94;62.12
59825;BME280;45703;50.898;6.054;2022-08-21T08:46:44;100311.78;;;20.03;62.10
59825;BME280;45703;50.898;6.054;2022-08-21T08:49:19;100316.84;;;20.15;62.19
59825;BME280;45703;50.898;6.054;2022-08-21T08:51:53;100302.72;;;20.23;62.53
59825;BME280;45703;50.898;6.054;2022-08-21T08:54:31;100301.75;;;20.37;62.56
59825;BME280;45703;50.898;6.054;2022-08-21T08:57:00;100303.03;;;20.49;62.43
59825;BME280;45703;50.898;6.054;2022-08-21T08:59:34;100296.38;;;20.65;61.82
59825;BME280;45703;50.898;6.054;2022-08-21T09:02:01;100297.91;;;20.76;60.20
59825;BME280;45703;50.898;6.054;2022-08-21T09:04:27;100297.03;;;20.81;60.85
59825;BME280;45703;50.898;6.054;2022-08-21T09:07:16;100301.59;;;20.90;60.58
59825;BME280;45703;50.898;6.054;2022-08-21T09:15:32;100299.34;;;20.97;60.75
59825;BME280;45703;50.898;6.054;2022-08-21T09:23:25;100294.44;;;20.99;59.12
59825;BME280;45703;50.898;6.054;2022-08-21T09:26:04;100301.44;;;21.05;60.47
59825;BME280;45703;50.898;6.054;2022-08-21T09:28:34;100296.47;;;21.12;59.54
59825;BME280;45703;50.898;6.054;2022-08-21T09:31:01;100298.56;;;21.20;60.09
59825;BME280;45703;50.898;6.054;2022-08-21T09:33:28;100290.06;;;21.27;60.33
59825;BME280;45703;50.898;6.054;2022-08-21T09:35:55;100292.66;;;21.37;60.20
59825;BME280;45703;50.898;6.054;2022-08-21T09:38:33;100296.06;;;21.47;59.25
59825;BME280;45703;50.898;6.054;2022-08-21T09:41:05;100288.16;;;21.51;58.94
59825;BME280;45703;50.898;6.054;2022-08-21T09:43:31;100304.66;;;21.54;57.02
59825;BME280;45703;50.898;6.054;2022-08-21T09:46:22;100285.06;;;21.57;58.69
59825;BME280;45703;50.898;6.054;2022-08-21T09:48:57;100285.38;;;21.56;58.86
59825;BME280;45703;50.898;6.054;2022-08-21T09:51:35;100292.69;;;21.55;58.51
59825;BME280;45703;50.898;6.054;2022-08-21T09:56:39;100276.88;;;21.62;58.20
59825;BME280;45703;50.898;6.054;2022-08-21T09:59:32;100277.38;;;21.64;58.65
59825;BME280;45703;50.898;6.054;2022-08-21T10:02:01;100271.34;;;21.67;58.83
59825;BME280;45703;50.898;6.054;2022-08-21T10:04:30;100267.53;;;21.68;58.65
59825;BME280;45703;50.898;6.054;2022-08-21T10:07:09;100271.84;;;21.74;59.19
59825;BME280;45703;50.898;6.054;2022-08-21T10:09:36;100268.44;;;21.82;59.40
59825;BME280;45703;50.898;6.054;2022-08-21T10:12:16;100265.06;;;21.90;59.16
59825;BME280;45703;50.898;6.054;2022-08-21T10:14:54;100270.34;;;22.00;59.02
59825;BME280;45703;50.898;6.054;2022-08-21T10:20:40;100285.41;;;22.11;57.58
59825;BME280;45703;50.898;6.054;2022-08-21T10:26:26;100279.75;;;22.26;56.98
59825;BME280;45703;50.898;6.054;2022-08-21T10:34:35;100265.22;;;22.49;57.16
59825;BME280;45703;50.898;6.054;2022-08-21T10:40:05;100259.09;;;22.57;55.50
59825;BME280;45703;50.898;6.054;2022-08-21T10:42:47;100255.28;;;22.58;55.96
59825;BME280;45703;50.898;6.054;2022-08-21T10:45:36;100254.91;;;22.64;56.23
59825;BME280;45703;50.898;6.054;2022-08-21T10:48:06;100257.53;;;22.69;56.23
59825;BME280;45703;50.898;6.054;2022-08-21T10:50:54;100248.47;;;22.74;55.33
59825;BME280;45703;50.898;6.054;2022-08-21T10:56:16;100251.00;;;22.84;55.23
59825;BME280;45703;50.898;6.054;2022-08-21T10:59:20;100256.34;;;22.89;55.80
59825;BME280;45703;50.898;6.054;2022-08-21T11:02:00;100256.16;;;22.99;55.77
59825;BME280;45703;50.898;6.054;2022-08-21T11:07:04;100256.09;;;23.17;55.48
59825;BME280;45703;50.898;6.054;2022-08-21T11:09:32;100249.72;;;23.22;54.96
59825;BME280;45703;50.898;6.054;2022-08-21T11:12:06;100259.94;;;23.30;52.97
59825;BME280;45703;50.898;6.054;2022-08-21T11:15:00;100260.59;;;23.35;53.91
59825;BME280;45703;50.898;6.054;2022-08-21T11:17:34;100254.56;;;23.38;52.05
59825;BME280;45703;50.898;6.054;2022-08-21T11:23:19;100254.16;;;23.45;52.05
59825;BME280;45703;50.898;6.054;2022-08-21T11:25:52;100259.38;;;23.54;53.28
59825;BME280;45703;50.898;6.054;2022-08-21T11:28:50;100250.78;;;23.61;51.92
59825;BME280;45703;50.898;6.054;2022-08-21T11:34:13;100249.97;;;23.60;52.21
59825;BME280;45703;50.898;6.054;2022-08-21T11:37:22;100246.75;;;23.58;50.64
59825;BME280;45703;50.898;6.054;2022-08-21T11:40:35;100247.25;;;23.60;49.53
59825;BME280;45703;50.898;6.054;2022-08-21T11:50:43;100247.25;;;23.47;49.82
59825;BME280;45703;50.898;6.054;2022-08-21T11:53:19;100244.47;;;23.39;50.46
59825;BME280;45703;50.898;6.054;2022-08-21T11:55:55;100245.69;;;23.33;50.14
59825;BME280;45703;50.898;6.054;2022-08-21T11:58:36;100237.03;;;23.31;51.07
59825;BME280;45703;50.898;6.054;2022-08-21T12:01:26;100241.03;;;23.20;49.17
59825;BME280;45703;50.898;6.054;2022-08-21T12:04:01;100234.81;;;23.19;51.65
59825;BME280;45703;50.898;6.054;2022-08-21T12:06:38;100234.47;;;23.21;51.78
59825;BME280;45703;50.898;6.054;2022-08-21T12:14:48;100248.28;;;23.51;51.52
59825;BME280;45703;50.898;6.054;2022-08-21T12:17:22;100240.19;;;23.59;50.59
59825;BME280;45703;50.898;6.054;2022-08-21T12:20:15;100241.91;;;23.69;47.84
59825;BME280;45703;50.898;6.054;2022-08-21T12:23:33;100241.97;;;23.77;49.20
59825;BME280;45703;50.898;6.054;2022-08-21T12:25:47;100241.41;;;23.80;50.40
59825;BME280;45703;50.898;6.054;2022-08-21T12:28:22;100240.03;;;23.91;50.24
59825;BME280;45703;50.898;6.054;2022-08-21T12:30:49;100245.38;;;23.96;48.79
59825;BME280;45703;50.898;6.054;2022-08-21T12:33:39;100233.22;;;24.02;49.94
59825;BME280;45703;50.898;6.054;2022-08-21T12:36:15;100230.09;;;24.09;50.35
59825;BME280;45703;50.898;6.054;2022-08-21T12:39:03;100230.94;;;24.18;50.64
59825;BME280;45703;50.898;6.054;2022-08-21T12:42:11;100229.41;;;24.25;49.56
59825;BME280;45703;50.898;6.054;2022-08-21T12:44:48;100229.91;;;24.27;48.42
59825;BME280;45703;50.898;6.054;2022-08-21T12:47:25;100228.09;;;24.23;48.04
59825;BME280;45703;50.898;6.054;2022-08-21T12:49:56;100226.28;;;24.18;48.03
59825;BME280;45703;50.898;6.054;2022-08-21T12:54:55;100227.66;;;24.07;47.87
59825;BME280;45703;50.898;6.054;2022-08-21T12:57:26;100233.72;;;24.04;48.65
59825;BME280;45703;50.898;6.054;2022-08-21T13:00:00;100229.38;;;24.03;48.98
59825;BME280;45703;50.898;6.054;2022-08-21T13:02:32;100231.38;;;24.11;49.44
59825;BME280;45703;50.898;6.054;2022-08-21T13:04:58;100233.97;;;24.16;49.43
59825;BME280;45703;50.898;6.054;2022-08-21T13:07:29;100230.75;;;24.14;48.44
59825;BME280;45703;50.898;6.054;2022-08-21T13:09:58;100224.13;;;24.07;48.49
59825;BME280;45703;50.898;6.054;2022-08-21T13:12:26;100231.00;;;24.04;47.34
59825;BME280;45703;50.898;6.054;2022-08-21T13:14:56;100226.03;;;24.06;48.27
59825;BME280;45703;50.898;6.054;2022-08-21T13:17:23;100223.31;;;24.06;47.54
59825;BME280;45703;50.898;6.054;2022-08-21T13:20:20;100224.03;;;24.20;47.49
59825;BME280;45703;50.898;6.054;2022-08-21T13:22:46;100216.75;;;24.29;46.79
59825;BME280;45703;50.898;6.054;2022-08-21T13:25:14;100218.38;;;24.39;46.74
59825;BME280;45703;50.898;6.054;2022-08-21T13:27:41;100215.84;;;24.42;45.86
59825;BME280;45703;50.898;6.054;2022-08-21T13:30:12;100221.47;;;24.46;46.78
59825;BME280;45703;50.898;6.054;2022-08-21T13:32:42;100209.94;;;24.49;46.77
59825;BME280;45703;50.898;6.054;2022-08-21T13:35:23;100209.91;;;24.40;45.46
59825;BME280;45703;50.898;6.054;2022-08-21T13:37:51;100215.50;;;24.35;46.14
59825;BME280;45703;50.898;6.054;2022-08-21T13:40:20;100217.66;;;24.25;46.48
59825;BME280;45703;50.898;6.054;2022-08-21T13:42:48;100216.13;;;24.10;45.99
59825;BME280;45703;50.898;6.054;2022-08-21T13:45:24;100212.66;;;23.96;46.81
59825;BME280;45703;50.898;6.054;2022-08-21T13:47:50;100219.97;;;23.87;46.80
59825;BME280;45703;50.898;6.054;2022-08-21T13:50:20;100216.44;;;23.73;46.24
59825;BME280;45703;50.898;6.054;2022-08-21T13:55:21;100214.97;;;23.54;47.26
59825;BME280;45703;50.898;6.054;2022-08-21T13:57:46;100216.00;;;23.45;46.46
59825;BME280;45703;50.898;6.054;2022-08-21T14:00:26;100211.78;;;23.39;47.36